createdAt,value
2023-01-18T00:00:09.294Z,95547.00
2023-01-18T00:02:47.275Z,95559.00
2023-01-18T00:05:27.418Z,95559.00
2023-01-18T00:08:07.057Z,95563.00
2023-01-18T00:10:45.674Z,95554.00
2023-01-18T00:13:18.049Z,95559.00
2023-01-18T00:16:01.115Z,95548.00
2023-01-18T00:18:45.938Z,95559.00
2023-01-18T00:21:29.221Z,95552.00
2023-01-18T00:24:14.911Z,95550.00
2023-01-18T00:26:56.791Z,95560.00
2023-01-18T00:29:49.904Z,95564.00
2023-01-18T00:32:31.911Z,95564.00
2023-01-18T00:35:10.426Z,95557.00
2023-01-18T00:37:52.575Z,95560.00
2023-01-18T00:40:33.978Z,95558.00
2023-01-18T00:43:30.626Z,95560.00
2023-01-18T00:46:11.989Z,95552.00
2023-01-18T00:48:46.658Z,95552.00
2023-01-18T00:51:30.500Z,95560.00
2023-01-18T00:54:19.513Z,95555.00
2023-01-18T00:56:56.855Z,95567.00
2023-01-18T00:59:32.807Z,95572.00
2023-01-18T01:02:21.086Z,95569.00
2023-01-18T01:05:17.899Z,95565.00
2023-01-18T01:07:54.676Z,95569.00
2023-01-18T01:10:28.276Z,95571.00
2023-01-18T01:13:18.177Z,95562.00
2023-01-18T01:16:04.564Z,95563.00
2023-01-18T01:19:03.269Z,95558.00
2023-01-18T01:21:59.311Z,95553.00
2023-01-18T01:24:45.593Z,95551.00
2023-01-18T01:27:16.705Z,95555.00
2023-01-18T01:29:49.810Z,95543.00
2023-01-18T01:32:25.372Z,95549.00
2023-01-18T01:35:08.127Z,95564.00
2023-01-18T01:37:46.097Z,95561.00
2023-01-18T01:40:17.170Z,95558.00
2023-01-18T01:42:49.339Z,95567.00
2023-01-18T01:45:24.918Z,95570.00
2023-01-18T01:48:08.866Z,95572.00
2023-01-18T01:50:49.861Z,95574.00
2023-01-18T01:53:27.846Z,95577.00
2023-01-18T01:56:01.567Z,95567.00
2023-01-18T01:58:31.172Z,95581.00
2023-01-18T02:01:16.907Z,95571.00
2023-01-18T02:04:05.805Z,95578.00
2023-01-18T02:06:44.135Z,95582.00
2023-01-18T02:09:18.835Z,95570.00
2023-01-18T02:11:53.655Z,95577.00
2023-01-18T02:14:32.619Z,95579.00
2023-01-18T02:17:24.653Z,95590.00
2023-01-18T02:20:35.099Z,95575.00
2023-01-18T02:23:38.103Z,95580.00
2023-01-18T02:26:42.942Z,95596.00
2023-01-18T02:29:19.009Z,95580.00
2023-01-18T02:32:02.431Z,95592.00
2023-01-18T02:34:44.338Z,95598.00
2023-01-18T02:37:19.975Z,95588.00
2023-01-18T02:40:12.013Z,95579.00
2023-01-18T02:43:12.018Z,95585.00
2023-01-18T02:46:12.097Z,95595.00
2023-01-18T02:48:53.731Z,95592.00
2023-01-18T02:51:28.783Z,95594.00
2023-01-18T02:54:33.558Z,95604.00
2023-01-18T02:57:18.051Z,95592.00
2023-01-18T02:59:53.848Z,95596.00
2023-01-18T03:02:28.304Z,95595.00
2023-01-18T03:05:04.841Z,95598.00
2023-01-18T03:07:46.748Z,95585.00
2023-01-18T03:10:38.670Z,95587.00
2023-01-18T03:13:18.334Z,95595.00
2023-01-18T03:15:53.684Z,95587.00
2023-01-18T03:18:42.311Z,95580.00
2023-01-18T03:21:25.296Z,95585.00
2023-01-18T03:23:59.237Z,95587.00
2023-01-18T03:26:42.854Z,95579.00
2023-01-18T03:29:42.035Z,95601.00
2023-01-18T03:32:45.611Z,95586.00
2023-01-18T03:35:21.686Z,95601.00
2023-01-18T03:37:54.979Z,95593.00
2023-01-18T03:40:31.498Z,95598.00
2023-01-18T03:43:05.713Z,95596.00
2023-01-18T03:45:50.247Z,95597.00
2023-01-18T03:48:23.889Z,95594.00
2023-01-18T03:51:05.030Z,95598.00
2023-01-18T03:53:47.624Z,95606.00
2023-01-18T03:56:27.857Z,95605.00
2023-01-18T03:59:07.785Z,95601.00
2023-01-18T04:01:38.839Z,95624.00
2023-01-18T04:04:41.711Z,95615.00
2023-01-18T04:07:40.426Z,95615.00
2023-01-18T04:10:17.485Z,95609.00
2023-01-18T04:13:12.707Z,95607.00
2023-01-18T04:15:49.711Z,95621.00
2023-01-18T04:18:31.880Z,95622.00
2023-01-18T04:21:11.278Z,95615.00
2023-01-18T04:24:01.349Z,95612.00
2023-01-18T04:26:53.130Z,95625.00
2023-01-18T04:29:40.112Z,95623.00
2023-01-18T04:32:27.873Z,95621.00
2023-01-18T04:35:07.105Z,95633.00
2023-01-18T04:37:43.928Z,95632.00
2023-01-18T04:40:38.956Z,95636.00
2023-01-18T04:43:21.904Z,95634.00
2023-01-18T04:46:13.858Z,95626.00
2023-01-18T04:49:04.925Z,95636.00
2023-01-18T04:51:51.773Z,95637.00
2023-01-18T04:54:49.504Z,95651.00
2023-01-18T04:57:43.349Z,95654.00
2023-01-18T05:00:16.575Z,95650.00
2023-01-18T05:03:03.043Z,95649.00
2023-01-18T05:05:39.779Z,95655.00
2023-01-18T05:08:22.771Z,95655.00
2023-01-18T05:11:15.367Z,95663.00
2023-01-18T05:13:53.238Z,95667.00
2023-01-18T05:16:40.379Z,95651.00
2023-01-18T05:19:34.624Z,95672.00
2023-01-18T05:22:23.172Z,95661.00
2023-01-18T05:25:04.102Z,95672.00
2023-01-18T05:27:51.125Z,95680.00
2023-01-18T05:30:24.765Z,95678.00
2023-01-18T05:32:55.721Z,95685.00
2023-01-18T05:35:35.196Z,95697.00
2023-01-18T05:38:15.042Z,95704.00
2023-01-18T05:40:45.835Z,95702.00
2023-01-18T05:43:30.387Z,95703.00
2023-01-18T05:46:12.881Z,95719.00
2023-01-18T05:49:05.859Z,95722.00
2023-01-18T05:51:48.055Z,95722.00
2023-01-18T05:54:37.687Z,95730.00
2023-01-18T05:57:25.362Z,95737.00
2023-01-18T06:00:06.250Z,95717.00
2023-01-18T06:03:00.996Z,95718.00
2023-01-18T06:05:36.745Z,95725.00
2023-01-18T06:08:08.338Z,95728.00
2023-01-18T06:10:53.272Z,95735.00
2023-01-18T06:13:34.485Z,95729.00
2023-01-18T06:16:27.932Z,95747.00
2023-01-18T06:19:11.637Z,95740.00
2023-01-18T06:24:43.827Z,95747.00
2023-01-18T06:27:15.656Z,95751.00
2023-01-18T06:29:49.289Z,95756.00
2023-01-18T06:32:28.110Z,95755.00
2023-01-18T06:35:04.440Z,95761.00
2023-01-18T06:37:45.048Z,95762.00
2023-01-18T06:40:31.859Z,95774.00
2023-01-18T06:43:10.627Z,95778.00
2023-01-18T06:45:52.672Z,95779.00
2023-01-18T06:48:34.210Z,95784.00
2023-01-18T06:51:29.373Z,95786.00
2023-01-18T06:54:03.443Z,95791.00
2023-01-18T06:56:48.905Z,95793.00
2023-01-18T06:59:30.242Z,95804.00
2023-01-18T07:05:04.629Z,95812.00
2023-01-18T07:08:27.071Z,95816.00
2023-01-18T07:11:17.266Z,95815.00
2023-01-18T07:14:00.511Z,95811.00
2023-01-18T07:16:30.640Z,95825.00
2023-01-18T07:19:14.549Z,95833.00
2023-01-18T07:22:01.462Z,95827.00
2023-01-18T07:24:43.615Z,95845.00
2023-01-18T07:27:25.509Z,95825.00
2023-01-18T07:30:13.267Z,95845.00
2023-01-18T07:33:03.280Z,95831.00
2023-01-18T07:35:48.856Z,95840.00
2023-01-18T07:38:39.403Z,95845.00
2023-01-18T07:41:23.554Z,95843.00
2023-01-18T07:44:12.361Z,95846.00
2023-01-18T07:46:50.019Z,95856.00
2023-01-18T07:49:23.761Z,95866.00
2023-01-18T07:51:58.418Z,95867.00
2023-01-18T07:54:34.422Z,95875.00
2023-01-18T07:57:14.013Z,95883.00
2023-01-18T08:00:09.653Z,95881.00
2023-01-18T08:02:56.455Z,95889.00
2023-01-18T08:05:36.719Z,95886.00
2023-01-18T08:08:15.240Z,95891.00
2023-01-18T08:11:08.993Z,95892.00
2023-01-18T08:13:42.963Z,95901.00
2023-01-18T08:16:17.371Z,95906.00
2023-01-18T08:18:58.194Z,95911.00
2023-01-18T08:21:56.421Z,95912.00
2023-01-18T08:24:32.035Z,95923.00
2023-01-18T08:27:14.186Z,95922.00
2023-01-18T08:29:53.869Z,95920.00
2023-01-18T08:32:58.530Z,95929.00
2023-01-18T08:38:45.695Z,95939.00
2023-01-18T08:41:40.036Z,95934.00
2023-01-18T08:44:20.722Z,95938.00
2023-01-18T08:46:59.770Z,95942.00
2023-01-18T08:49:47.707Z,95952.00
2023-01-18T08:52:38.664Z,95955.00
2023-01-18T08:55:15.902Z,95964.00
2023-01-18T08:57:52.894Z,95961.00
2023-01-18T09:00:28.848Z,95960.00
2023-01-18T09:03:27.770Z,95974.00
2023-01-18T09:06:18.077Z,95981.00
2023-01-18T09:08:58.860Z,95983.00
2023-01-18T09:11:44.084Z,95980.00
2023-01-18T09:14:34.030Z,95983.00
2023-01-18T09:17:28.393Z,95991.00
2023-01-18T09:20:16.592Z,95985.00
2023-01-18T09:23:12.540Z,96003.00
2023-01-18T09:26:10.589Z,95998.00
2023-01-18T09:28:50.246Z,96006.00
2023-01-18T09:31:39.120Z,96013.00
2023-01-18T09:34:19.997Z,96020.00
2023-01-18T09:37:18.802Z,96017.00
2023-01-18T09:40:13.915Z,96024.00
2023-01-18T09:42:51.805Z,96030.00
2023-01-18T09:45:41.268Z,96033.00
2023-01-18T09:48:29.588Z,96039.00
2023-01-18T09:51:17.356Z,96040.00
2023-01-18T09:54:21.379Z,96034.00
2023-01-18T09:57:13.920Z,96047.00
2023-01-18T09:59:54.208Z,96058.00
2023-01-18T10:02:39.628Z,96063.00
2023-01-18T10:05:21.653Z,96070.00
2023-01-18T10:08:05.764Z,96069.00
2023-01-18T10:10:53.084Z,96078.00
2023-01-18T10:14:05.018Z,96085.00
2023-01-18T10:16:55.538Z,96079.00
2023-01-18T10:19:36.379Z,96084.00
2023-01-18T10:22:19.373Z,96090.00
2023-01-18T10:25:16.310Z,96082.00
2023-01-18T10:28:25.789Z,96096.00
2023-01-18T10:31:28.589Z,96094.00
2023-01-18T10:34:11.266Z,96105.00
2023-01-18T10:36:57.971Z,96100.00
2023-01-18T10:39:52.700Z,96104.00
2023-01-18T10:42:39.176Z,96114.00
2023-01-18T10:45:27.076Z,96126.00
2023-01-18T10:51:14.766Z,96132.00
2023-01-18T10:53:56.303Z,96134.00
2023-01-18T10:59:44.721Z,96150.00
2023-01-18T11:02:33.949Z,96147.00
2023-01-18T11:05:40.334Z,96143.00
2023-01-18T11:08:36.464Z,96139.00
2023-01-18T11:11:45.931Z,96157.00
2023-01-18T11:14:43.606Z,96157.00
2023-01-18T11:17:23.141Z,96165.00
2023-01-18T11:20:32.458Z,96174.00
2023-01-18T11:23:29.916Z,96173.00
2023-01-18T11:26:29.399Z,96179.00
2023-01-18T11:29:10.171Z,96185.00
2023-01-18T11:31:56.529Z,96180.00
2023-01-18T11:34:43.287Z,96178.00
2023-01-18T11:37:42.190Z,96179.00
2023-01-18T11:40:42.273Z,96179.00
2023-01-18T11:43:38.124Z,96177.00
2023-01-18T11:46:46.687Z,96178.00
2023-01-18T11:49:46.926Z,96178.00
2023-01-18T11:52:30.920Z,96180.00
2023-01-18T11:55:27.094Z,96197.00
2023-01-18T11:58:31.005Z,96204.00
2023-01-18T12:01:22.139Z,96197.00
2023-01-18T12:04:06.838Z,96203.00
2023-01-18T12:06:50.672Z,96214.00
2023-01-18T12:09:48.707Z,96211.00
2023-01-18T12:16:17.105Z,96237.00
2023-01-18T12:19:25.517Z,96231.00
2023-01-18T12:22:25.789Z,96237.00
2023-01-18T12:25:27.500Z,96234.00
2023-01-18T12:28:08.012Z,96241.00
2023-01-18T12:30:47.630Z,96247.00
2023-01-18T12:33:46.603Z,96249.00
2023-01-18T12:36:49.543Z,96256.00
2023-01-18T12:39:37.895Z,96268.00
2023-01-18T12:42:16.974Z,96277.00
2023-01-18T12:45:24.112Z,96285.00
2023-01-18T12:48:13.828Z,96288.00
2023-01-18T12:51:01.868Z,96285.00
2023-01-18T12:53:38.807Z,96285.00
2023-01-18T12:56:32.058Z,96290.00
2023-01-18T12:59:19.713Z,96292.00
2023-01-18T13:02:11.169Z,96300.00
2023-01-18T13:04:56.830Z,96300.00
2023-01-18T13:07:53.481Z,96302.00
2023-01-18T13:10:49.211Z,96308.00
2023-01-18T13:13:41.491Z,96315.00
2023-01-18T13:16:47.641Z,96323.00
2023-01-18T13:19:30.523Z,96334.00
2023-01-18T13:22:31.616Z,96326.00
2023-01-18T13:25:32.283Z,96336.00
2023-01-18T13:28:31.066Z,96347.00
2023-01-18T13:31:25.479Z,96349.00
2023-01-18T13:37:49.834Z,96371.00
2023-01-18T13:40:45.715Z,96376.00
2023-01-18T13:44:07.422Z,96389.00
2023-01-18T13:49:52.907Z,96399.00
2023-01-18T13:53:04.185Z,96398.00
2023-01-18T13:55:48.275Z,96393.00
2023-01-18T13:58:34.657Z,96405.00
2023-01-18T14:01:41.418Z,96405.00
2023-01-18T14:04:43.165Z,96423.00
2023-01-18T14:07:28.903Z,96421.00
2023-01-18T14:10:24.976Z,96426.00
2023-01-18T14:13:15.763Z,96430.00
2023-01-18T14:18:56.966Z,96447.00
2023-01-18T14:22:16.083Z,96463.00
2023-01-18T14:25:20.159Z,96466.00
2023-01-18T14:28:13.428Z,96477.00
2023-01-18T14:30:53.815Z,96489.00
2023-01-18T14:33:50.207Z,96496.00
2023-01-18T14:36:42.602Z,96495.00
2023-01-18T14:39:33.662Z,96516.00
2023-01-18T14:42:27.692Z,96520.00
2023-01-18T14:45:17.163Z,96525.00
2023-01-18T14:48:12.421Z,96532.00
2023-01-18T14:50:56.787Z,96537.00
2023-01-18T14:53:46.555Z,96538.00
2023-01-18T14:56:35.365Z,96534.00
2023-01-18T14:59:23.413Z,96539.00
2023-01-18T15:02:38.441Z,96544.00
2023-01-18T15:05:24.562Z,96549.00
2023-01-18T15:08:07.908Z,96552.00
2023-01-18T15:10:57.425Z,96576.00
2023-01-18T15:13:50.025Z,96566.00
2023-01-18T15:16:33.791Z,96574.00
2023-01-18T15:19:23.542Z,96585.00
2023-01-18T15:22:02.877Z,96583.00
2023-01-18T15:25:05.558Z,96601.00
2023-01-18T15:27:45.303Z,96602.00
2023-01-18T15:30:25.658Z,96607.00
2023-01-18T15:33:20.413Z,96610.00
2023-01-18T15:36:00.317Z,96621.00
2023-01-18T15:38:41.999Z,96627.00
2023-01-18T15:41:40.716Z,96635.00
2023-01-18T15:47:38.793Z,96651.00
2023-01-18T15:53:28.085Z,96653.00
2023-01-18T15:56:08.587Z,96664.00
2023-01-18T15:58:58.923Z,96666.00
2023-01-18T16:01:36.017Z,96677.00
2023-01-18T16:04:32.655Z,96666.00
2023-01-18T16:07:21.556Z,96680.00
2023-01-18T16:10:38.014Z,96679.00
2023-01-18T16:13:48.787Z,96683.00
2023-01-18T16:16:46.417Z,96691.00
2023-01-18T16:19:37.774Z,96692.00
2023-01-18T16:22:23.071Z,96694.00
2023-01-18T16:25:04.424Z,96684.00
2023-01-18T16:28:00.677Z,96697.00
2023-01-18T16:30:47.075Z,96712.00
2023-01-18T16:33:27.903Z,96709.00
2023-01-18T16:36:41.686Z,96714.00
2023-01-18T16:39:27.351Z,96719.00
2023-01-18T16:42:13.003Z,96727.00
2023-01-18T16:44:54.197Z,96724.00
2023-01-18T16:47:41.143Z,96722.00
2023-01-18T16:50:33.136Z,96736.00
2023-01-18T16:53:40.379Z,96746.00
2023-01-18T16:56:31.970Z,96750.00
2023-01-18T16:59:13.389Z,96754.00
2023-01-18T17:02:20.341Z,96752.00
2023-01-18T17:05:15.079Z,96753.00
2023-01-18T17:08:03.474Z,96762.00
2023-01-18T17:10:45.655Z,96763.00
2023-01-18T17:13:31.023Z,96762.00
2023-01-18T17:16:18.121Z,96769.00
2023-01-18T17:19:03.923Z,96774.00
2023-01-18T17:21:52.674Z,96787.00
2023-01-18T17:24:33.060Z,96787.00
2023-01-18T17:27:10.305Z,96797.00
2023-01-18T17:29:46.382Z,96805.00
2023-01-18T17:32:32.822Z,96807.00
2023-01-18T17:35:10.573Z,96811.00
2023-01-18T17:38:05.062Z,96827.00
2023-01-18T17:40:54.797Z,96823.00
2023-01-18T17:43:39.191Z,96837.00
2023-01-18T17:46:13.713Z,96838.00
2023-01-18T17:49:02.472Z,96847.00
2023-01-18T17:51:40.428Z,96854.00
2023-01-18T17:54:20.763Z,96845.00
2023-01-18T17:57:12.787Z,96852.00
2023-01-18T18:00:01.468Z,96860.00
2023-01-18T18:02:43.300Z,96863.00
2023-01-18T18:05:24.602Z,96861.00
2023-01-18T18:07:56.189Z,96874.00
2023-01-18T18:10:40.511Z,96878.00
2023-01-18T18:13:30.256Z,96884.00
2023-01-18T18:16:11.694Z,96888.00
2023-01-18T18:19:09.667Z,96891.00
2023-01-18T18:22:09.359Z,96899.00
2023-01-18T18:24:49.027Z,96906.00
2023-01-18T18:27:37.569Z,96903.00
2023-01-18T18:30:27.018Z,96902.00
2023-01-18T18:33:16.655Z,96916.00
2023-01-18T18:36:10.737Z,96911.00
2023-01-18T18:38:51.620Z,96917.00
2023-01-18T18:41:36.771Z,96931.00
2023-01-18T18:44:28.811Z,96937.00
2023-01-18T18:47:14.550Z,96946.00
2023-01-18T18:50:01.663Z,96945.00
2023-01-18T18:52:37.150Z,96949.00
2023-01-18T18:55:19.503Z,96957.00
2023-01-18T18:57:55.713Z,96962.00
2023-01-18T19:00:41.632Z,96959.00
2023-01-18T19:03:27.900Z,96962.00
2023-01-18T19:06:13.969Z,96979.00
2023-01-18T19:09:04.415Z,96975.00
2023-01-18T19:11:59.160Z,96978.00
2023-01-18T19:14:47.908Z,96980.00
2023-01-18T19:17:34.861Z,97001.00
2023-01-18T19:20:22.192Z,97004.00
2023-01-18T19:23:01.836Z,97006.00
2023-01-18T19:25:44.029Z,97003.00
2023-01-18T19:28:27.894Z,97002.00
2023-01-18T19:31:08.867Z,97020.00
2023-01-18T19:33:56.704Z,97016.00
2023-01-18T19:36:31.463Z,97016.00
2023-01-18T19:39:33.070Z,97023.00
2023-01-18T19:42:15.649Z,97030.00
2023-01-18T19:44:59.596Z,97034.00
2023-01-18T19:47:52.100Z,97023.00
2023-01-18T19:50:25.536Z,97033.00
2023-01-18T19:53:08.223Z,97027.00
2023-01-18T19:55:54.281Z,97041.00
2023-01-18T19:58:38.124Z,97038.00
2023-01-18T20:01:36.897Z,97038.00
2023-01-18T20:04:19.563Z,97047.00
2023-01-18T20:07:10.038Z,97042.00
2023-01-18T20:09:55.022Z,97051.00
2023-01-18T20:12:43.199Z,97060.00
2023-01-18T20:15:15.961Z,97063.00
2023-01-18T20:18:21.741Z,97065.00
2023-01-18T20:20:58.965Z,97059.00
2023-01-18T20:23:47.000Z,97070.00
2023-01-18T20:26:35.276Z,97083.00
2023-01-18T20:29:39.385Z,97073.00
2023-01-18T20:32:16.536Z,97080.00
2023-01-18T20:35:25.033Z,97085.00
2023-01-18T20:38:09.252Z,97089.00
2023-01-18T20:40:56.662Z,97083.00
2023-01-18T20:43:42.846Z,97087.00
2023-01-18T20:46:23.953Z,97086.00
2023-01-18T20:49:07.467Z,97094.00
2023-01-18T20:51:42.358Z,97099.00
2023-01-18T20:54:23.981Z,97103.00
2023-01-18T20:57:06.417Z,97096.00
2023-01-18T21:02:41.141Z,97116.00
2023-01-18T21:05:22.732Z,97120.00
2023-01-18T21:07:57.019Z,97122.00
2023-01-18T21:10:49.646Z,97127.00
2023-01-18T21:13:38.767Z,97125.00
2023-01-18T21:16:12.060Z,97124.00
2023-01-18T21:18:54.613Z,97127.00
2023-01-18T21:21:38.098Z,97131.00
2023-01-18T21:24:16.115Z,97135.00
2023-01-18T21:26:52.274Z,97142.00
2023-01-18T21:29:36.818Z,97141.00
2023-01-18T21:32:30.129Z,97144.00
2023-01-18T21:35:09.309Z,97156.00
2023-01-18T21:37:49.424Z,97153.00
2023-01-18T21:40:26.357Z,97158.00
2023-01-18T21:43:18.627Z,97166.00
2023-01-18T21:45:58.432Z,97164.00
2023-01-18T21:48:32.048Z,97167.00
2023-01-18T21:51:22.478Z,97165.00
2023-01-18T21:54:30.893Z,97169.00
2023-01-18T21:57:10.888Z,97159.00
2023-01-18T21:59:45.446Z,97175.00
2023-01-18T22:02:17.545Z,97177.00
2023-01-18T22:05:06.205Z,97180.00
2023-01-18T22:08:01.496Z,97184.00
2023-01-18T22:10:39.270Z,97200.00
2023-01-18T22:13:20.336Z,97203.00
2023-01-18T22:15:57.141Z,97201.00
2023-01-18T22:18:36.070Z,97201.00
2023-01-18T22:21:13.950Z,97204.00
2023-01-18T22:23:52.566Z,97208.00
2023-01-18T22:26:31.741Z,97223.00
2023-01-18T22:29:05.497Z,97232.00
2023-01-18T22:31:43.195Z,97230.00
2023-01-18T22:34:20.679Z,97232.00
2023-01-18T22:37:03.152Z,97235.00
2023-01-18T22:39:47.655Z,97239.00
2023-01-18T22:42:30.066Z,97243.00
2023-01-18T22:45:09.828Z,97242.00
2023-01-18T22:47:51.244Z,97252.00
2023-01-18T22:50:28.935Z,97260.00
2023-01-18T22:53:12.545Z,97258.00
2023-01-18T22:55:48.124Z,97260.00
2023-01-18T22:58:20.132Z,97265.00
2023-01-18T23:00:53.465Z,97269.00
2023-01-18T23:03:27.955Z,97269.00
2023-01-18T23:06:07.036Z,97267.00
2023-01-18T23:08:43.823Z,97266.00
2023-01-18T23:11:25.107Z,97262.00
2023-01-18T23:14:15.233Z,97272.00
2023-01-18T23:17:05.523Z,97268.00
2023-01-18T23:19:42.466Z,97273.00
2023-01-18T23:22:20.736Z,97269.00
2023-01-18T23:25:16.598Z,97276.00
2023-01-18T23:28:01.972Z,97281.00
2023-01-18T23:30:49.271Z,97289.00
2023-01-18T23:33:35.638Z,97289.00
2023-01-18T23:36:25.781Z,97286.00
2023-01-18T23:39:16.634Z,97290.00
2023-01-18T23:42:05.544Z,97285.00
2023-01-18T23:45:00.616Z,97276.00
2023-01-18T23:47:55.149Z,97288.00
2023-01-18T23:50:49.019Z,97291.00
2023-01-18T23:53:37.268Z,97291.00
2023-01-18T23:56:15.627Z,97287.00
2023-01-18T23:58:51.940Z,97290.00
